Time;durP1;ratioP1;P1;durP2;ratioP2;P2;SDS_P1;SDS_P2;PMS_P1;PMS_P2;Temp;Humidity;BMP_temperature;BMP_pressure;BME280_temperature;BME280_humidity;BME280_pressure;Samples;Min_cycle;Max_cycle;Signal;HPM_P1;HPM_P2
2022/09/07 00:01:35;;;;;;;2.38;1.73;;;;;;;12.63;76.13;97024.44;5074135;28;20547;-64
2022/09/07 00:04:02;;;;;;;4.82;1.85;;;;;;;12.64;75.27;97017.41;5073974;28;20446;-63
2022/09/07 00:06:33;;;;;;;1.73;1.60;;;;;;;12.64;74.94;97020.03;5073818;28;20048;-64
2022/09/07 00:09:01;;;;;;;3.05;1.95;;;;;;;12.65;74.91;97019.13;5073766;28;20094;-62
2022/09/07 00:11:29;;;;;;;3.65;1.85;;;;;;;12.64;75.01;97027.91;5073869;28;20094;-65
2022/09/07 00:13:57;;;;;;;2.65;2.17;;;;;;;12.63;75.29;97027.06;5073699;28;20075;-64
2022/09/07 00:16:26;;;;;;;4.78;2.03;;;;;;;12.63;75.07;97028.81;5073433;28;20041;-63
2022/09/07 00:18:54;;;;;;;4.70;1.88;;;;;;;12.65;75.28;97037.50;5073647;28;20410;-64
2022/09/07 00:21:21;;;;;;;2.67;1.65;;;;;;;12.68;75.19;97037.38;5073671;28;20071;-62
2022/09/07 00:23:50;;;;;;;3.50;1.88;;;;;;;12.70;74.66;97034.72;5073567;28;20049;-61
2022/09/07 00:26:20;;;;;;;2.85;1.77;;;;;;;12.59;73.91;97030.72;5073562;28;20044;-65
2022/09/07 00:28:49;;;;;;;;;;;;;;;12.58;74.89;97031.63;5073772;28;20053;-61
2022/09/07 00:31:19;;;;;;;5.25;1.92;;;;;;;12.50;74.64;97031.06;5073350;28;19920;-62
2022/09/07 00:33:47;;;;;;;2.25;1.75;;;;;;;12.42;74.63;97033.09;5073585;28;20123;-64
2022/09/07 00:36:14;;;;;;;5.85;2.03;;;;;;;12.39;75.21;97028.84;5073537;28;20072;-65
2022/09/07 00:38:41;;;;;;;2.40;2.00;;;;;;;12.39;75.37;97028.84;5073305;28;20094;-63
2022/09/07 00:41:08;;;;;;;2.90;1.65;;;;;;;12.36;75.33;97037.69;5073573;28;20044;-63
2022/09/07 00:43:38;;;;;;;2.72;1.90;;;;;;;12.37;75.72;97038.53;5073375;28;20114;-61
2022/09/07 00:46:11;;;;;;;4.28;2.67;;;;;;;12.37;75.58;97036.78;5073399;28;20044;-65
2022/09/07 00:48:43;;;;;;;2.67;2.38;;;;;;;12.37;75.88;97038.53;5073143;28;20049;-61
2022/09/07 00:51:15;;;;;;;2.75;1.90;;;;;;;12.35;75.13;97032.50;5073318;28;20141;-64
2022/09/07 00:53:45;;;;;;;6.60;2.33;;;;;;;12.32;75.09;97027.38;5072995;28;20078;-63
2022/09/07 00:56:13;;;;;;;3.60;2.17;;;;;;;12.29;75.13;97033.59;5073105;28;20044;-64
2022/09/07 00:58:43;;;;;;;5.10;2.60;;;;;;;12.27;75.09;97030.16;5073299;28;20084;-62
2022/09/07 01:01:12;;;;;;;3.55;2.40;;;;;;;12.24;75.20;97033.75;5073135;28;20045;-62
2022/09/07 01:03:44;;;;;;;6.13;2.17;;;;;;;12.25;74.70;97030.22;5073219;28;20127;-62
2022/09/07 01:06:16;;;;;;;3.97;2.20;;;;;;;12.24;74.75;97025.03;5073141;28;20052;-62
2022/09/07 01:08:44;;;;;;;4.90;1.98;;;;;;;12.25;74.64;97026.72;5072825;28;20095;-63
2022/09/07 01:11:12;;;;;;;7.60;1.92;;;;;;;12.18;74.46;97013.00;5073108;28;20056;-62
2022/09/07 01:13:39;;;;;;;1.95;1.73;;;;;;;12.19;74.57;97022.56;5073267;28;20063;-65
2022/09/07 01:16:16;;;;;;;2.45;1.90;;;;;;;12.13;74.38;97017.53;5073040;28;20041;-64
2022/09/07 01:18:52;;;;;;;3.55;2.08;;;;;;;12.12;74.92;97005.34;5072817;28;20063;-64
2022/09/07 01:21:24;;;;;;;3.25;1.90;;;;;;;12.17;74.28;97031.41;5073070;28;20059;-64
2022/09/07 01:24:24;;;;;;;6.97;2.15;;;;;;;12.10;74.12;97022.94;5072850;28;20580;-62
2022/09/07 01:27:11;;;;;;;2.10;1.80;;;;;;;12.06;74.27;97019.50;5072895;28;20080;-63
2022/09/07 01:29:50;;;;;;;3.95;2.15;;;;;;;12.06;74.01;97019.50;5073035;28;20126;-64
2022/09/07 01:32:27;;;;;;;3.90;1.90;;;;;;;12.03;73.84;97018.75;5072907;28;20131;-62
2022/09/07 01:34:54;;;;;;;2.63;1.70;;;;;;;11.96;73.89;97026.00;5072855;28;20076;-62
2022/09/07 01:37:30;;;;;;;5.43;1.90;;;;;;;11.86;74.36;97010.59;5072778;28;20132;-63
2022/09/07 01:40:05;;;;;;;2.55;1.55;;;;;;;11.91;74.89;97023.53;5072783;28;20487;-62
2022/09/07 01:42:39;;;;;;;2.38;1.67;;;;;;;11.93;74.62;97020.88;5072689;28;20102;-65
2022/09/07 01:45:12;;;;;;;2.80;1.83;;;;;;;11.93;74.46;97018.25;5072757;28;20091;-64
2022/09/07 01:47:43;;;;;;;4.93;2.05;;;;;;;11.93;73.99;97019.13;5072771;28;20078;-65
2022/09/07 01:50:16;;;;;;;2.22;2.03;;;;;;;11.83;73.99;97015.94;5072608;28;20075;-61
2022/09/07 01:52:50;;;;;;;2.63;1.88;;;;;;;11.80;74.46;97007.34;5072649;28;20076;-63
2022/09/07 01:55:22;;;;;;;2.75;2.10;;;;;;;11.78;74.67;97012.66;5072716;28;20094;-63
2022/09/07 01:57:55;;;;;;;2.20;2.00;;;;;;;11.74;74.66;97019.75;5072645;28;20048;-65
2022/09/07 02:00:25;;;;;;;3.30;2.13;;;;;;;11.73;74.65;97009.31;5072706;28;20052;-63
2022/09/07 02:02:58;;;;;;;2.10;1.42;;;;;;;11.69;74.60;97007.72;5072488;28;20490;-62
2022/09/07 02:05:33;;;;;;;3.88;2.00;;;;;;;11.65;75.66;97006.13;5075124;28;20044;-63
2022/09/07 02:08:06;;;;;;;2.38;1.98;;;;;;;11.63;76.22;97008.78;5076252;28;20131;-64
2022/09/07 02:10:40;;;;;;;3.72;1.80;;;;;;;11.66;75.89;97000.84;5076097;28;20057;-64
2022/09/07 02:13:12;;;;;;;3.05;1.90;;;;;;;11.66;75.87;97005.22;5076059;28;20052;-61
2022/09/07 02:15:46;;;;;;;3.53;1.60;;;;;;;11.62;74.93;97000.06;5076027;28;20044;-61
2022/09/07 02:18:14;;;;;;;1.88;1.65;;;;;;;11.57;75.12;96995.91;5075832;28;20139;-61
2022/09/07 02:20:45;;;;;;;2.45;1.85;;;;;;;11.56;75.43;96988.97;5075981;28;20091;-64
2022/09/07 02:23:17;;;;;;;5.82;2.08;;;;;;;11.48;75.43;96992.72;5076023;28;20462;-65
2022/09/07 02:25:51;;;;;;;2.45;1.98;;;;;;;11.44;75.75;96993.69;5075980;28;20128;-63
2022/09/07 02:28:22;;;;;;;2.53;2.17;;;;;;;11.40;76.48;96986.84;5075893;28;20041;-64
2022/09/07 02:30:51;;;;;;;2.88;2.15;;;;;;;11.44;77.33;96992.88;5075913;28;20076;-61
2022/09/07 02:33:18;;;;;;;5.68;2.00;;;;;;;11.50;76.96;96992.66;5075882;28;20056;-63
2022/09/07 02:35:46;;;;;;;4.78;2.25;;;;;;;11.47;76.21;96990.97;5075694;28;20466;-64
2022/09/07 02:38:13;;;;;;;1.90;1.60;;;;;;;11.42;76.19;96986.81;5075538;28;20087;-62
2022/09/07 02:40:40;;;;;;;2.40;2.17;;;;;;;11.38;75.87;96992.16;5075499;28;20053;-64
2022/09/07 02:43:10;;;;;;;2.80;1.92;;;;;;;11.38;75.55;96996.56;5075533;28;20129;-62
2022/09/07 02:45:50;;;;;;;4.13;1.77;;;;;;;11.37;75.08;96989.59;5075611;28;20110;-63
2022/09/07 02:48:31;;;;;;;1.60;1.48;;;;;;;11.37;75.25;96984.34;5075640;28;20048;-63
2022/09/07 02:51:04;;;;;;;;;;;;;;;11.33;76.68;96988.84;5075798;28;20079;-62
2022/09/07 02:53:47;;;;;;;3.67;2.03;;;;;;;11.32;76.96;96986.28;5075305;28;19924;-63
2022/09/07 02:56:28;;;;;;;3.22;1.90;;;;;;;11.34;76.11;96984.44;5075390;28;20056;-66
2022/09/07 02:59:01;;;;;;;;;;;;;;;11.29;75.44;96989.84;5075682;28;20055;-65
2022/09/07 03:01:36;;;;;;;3.55;2.10;;;;;;;11.22;75.43;96985.72;5075269;28;20374;-63
2022/09/07 03:04:12;;;;;;;3.78;2.25;;;;;;;11.19;75.69;96984.06;5075347;28;20040;-63
2022/09/07 03:06:41;;;;;;;2.13;1.83;;;;;;;11.18;75.60;96982.34;5075349;28;20040;-63
2022/09/07 03:09:13;;;;;;;4.40;2.03;;;;;;;11.20;75.42;96983.16;5074926;28;20044;-63
2022/09/07 03:11:41;;;;;;;2.20;2.00;;;;;;;11.16;75.95;96989.41;5074926;28;20052;-62
2022/09/07 03:14:16;;;;;;;5.75;1.95;;;;;;;11.14;75.95;96985.13;5075034;28;20094;-64
2022/09/07 03:16:44;;;;;;;3.28;2.10;;;;;;;11.14;75.80;96987.75;5074569;28;20495;-61
2022/09/07 03:19:12;;;;;;;2.58;1.80;;;;;;;11.12;75.80;96991.28;5074745;28;20056;-63
2022/09/07 03:21:39;;;;;;;6.57;1.92;;;;;;;11.10;75.61;96982.59;5074816;28;20045;-64
2022/09/07 03:24:07;;;;;;;2.45;2.15;;;;;;;11.02;77.22;96989.00;5074616;28;20049;-62
2022/09/07 03:26:43;;;;;;;3.72;2.50;;;;;;;10.93;77.71;96984.94;5074557;28;20052;-64
2022/09/07 03:29:10;;;;;;;2.45;2.00;;;;;;;10.93;77.13;96985.75;5074626;28;20044;-63
2022/09/07 03:31:38;;;;;;;6.50;2.25;;;;;;;10.90;77.15;96982.41;5074643;28;20131;-63
2022/09/07 03:34:06;;;;;;;9.75;2.60;;;;;;;10.95;77.08;96989.19;5074479;28;20058;-65
2022/09/07 03:36:34;;;;;;;9.57;2.75;;;;;;;10.95;76.38;96989.19;5074618;28;20048;-62
2022/09/07 03:39:02;;;;;;;3.80;2.53;;;;;;;10.94;76.29;96989.25;5074615;28;20059;-63
2022/09/07 03:41:29;;;;;;;4.07;2.70;;;;;;;10.90;76.03;96987.66;5074373;28;20102;-62
2022/09/07 03:43:56;;;;;;;8.27;2.72;;;;;;;10.89;75.87;96992.00;5074553;28;20044;-62
2022/09/07 03:46:23;;;;;;;3.13;1.98;;;;;;;10.90;76.17;96998.13;5074305;28;20094;-62
2022/09/07 03:48:51;;;;;;;4.50;2.40;;;;;;;10.92;75.74;97001.50;5074207;28;20052;-64
2022/09/07 03:51:20;;;;;;;4.07;1.90;;;;;;;10.92;75.46;97002.38;5074230;28;20098;-62
2022/09/07 03:53:50;;;;;;;5.78;2.30;;;;;;;10.85;75.83;96998.25;5074179;28;20048;-63
2022/09/07 03:56:19;;;;;;;4.77;2.60;;;;;;;10.89;76.56;97005.09;5074187;28;20049;-64
2022/09/07 03:58:47;;;;;;;5.38;2.17;;;;;;;10.91;75.95;97008.53;5074118;28;20289;-64
2022/09/07 04:01:16;;;;;;;2.75;1.90;;;;;;;10.92;75.92;97006.75;5073973;28;20048;-64
2022/09/07 04:03:45;;;;;;;3.03;2.30;;;;;;;10.89;76.40;97005.09;5074100;28;20098;-65
2022/09/07 04:06:13;;;;;;;4.25;2.25;;;;;;;10.89;76.63;97015.56;5073942;28;20055;-63
2022/09/07 04:08:42;;;;;;;4.68;2.03;;;;;;;10.91;76.24;97010.28;5073925;28;20040;-65
2022/09/07 04:11:13;;;;;;;2.92;2.30;;;;;;;10.89;76.22;97010.34;5073744;28;20044;-62
2022/09/07 04:13:41;;;;;;;4.07;2.28;;;;;;;10.95;76.32;97020.63;5073778;28;20087;-63
2022/09/07 04:16:14;;;;;;;5.68;1.92;;;;;;;10.98;76.00;97020.50;5073511;28;20494;-62
2022/09/07 04:18:41;;;;;;;7.40;2.45;;;;;;;11.01;75.75;97022.16;5073510;28;20052;-63
2022/09/07 04:21:08;;;;;;;4.40;2.20;;;;;;;10.99;76.17;97016.97;5073639;28;20052;-62
2022/09/07 04:23:39;;;;;;;2.20;2.00;;;;;;;11.05;76.65;97025.56;5073569;28;20067;-64
2022/09/07 04:26:07;;;;;;;4.47;2.45;;;;;;;11.12;76.80;97025.31;5073483;28;20053;-63
2022/09/07 04:28:35;;;;;;;3.13;2.30;;;;;;;11.10;75.97;97024.50;5073168;28;20056;-62
2022/09/07 04:31:03;;;;;;;7.93;2.70;;;;;;;11.16;76.10;97033.03;5073487;28;20498;-62
2022/09/07 04:33:31;;;;;;;3.58;2.40;;;;;;;11.29;76.91;97033.53;5073474;28;20060;-63
2022/09/07 04:36:00;;;;;;;3.55;2.20;;;;;;;11.67;75.86;97036.59;5073542;28;20119;-64
2022/09/07 04:38:28;;;;;;;4.97;1.98;;;;;;;12.21;74.77;97027.75;5073489;28;20052;-64
2022/09/07 04:41:00;;;;;;;3.97;1.65;;;;;;;12.83;71.48;97029.81;5073286;28;20041;-62
2022/09/07 04:43:27;;;;;;;2.40;1.65;;;;;;;13.49;69.71;97041.19;5073737;28;20449;-63
2022/09/07 04:45:56;;;;;;;1.77;1.63;;;;;;;14.20;66.53;97039.06;5073319;28;20139;-62
2022/09/07 04:48:23;;;;;;;4.22;1.70;;;;;;;14.89;64.36;97045.63;5073372;28;20059;-65
2022/09/07 04:50:51;;;;;;;5.30;1.83;;;;;;;15.57;62.69;97034.47;5073326;28;20135;-66
2022/09/07 04:53:19;;;;;;;2.97;2.10;;;;;;;16.22;61.04;97033.81;5073167;28;20549;-62
2022/09/07 04:55:46;;;;;;;2.55;1.50;;;;;;;16.92;59.23;97037.13;5073270;28;20044;-66
2022/09/07 04:58:13;;;;;;;3.13;1.70;;;;;;;17.48;57.21;97038.41;5073202;28;20502;-64
2022/09/07 05:00:41;;;;;;;4.30;1.92;;;;;;;18.01;56.26;97053.84;5073150;28;20139;-65
2022/09/07 05:03:09;;;;;;;5.40;1.65;;;;;;;18.67;54.84;97056.06;5073162;28;20403;-66
2022/09/07 05:05:38;;;;;;;7.57;1.83;;;;;;;19.30;52.92;97053.00;5073042;28;20091;-63
2022/09/07 05:08:05;;;;;;;2.53;1.60;;;;;;;19.93;51.66;97047.94;5073137;28;20055;-65
2022/09/07 05:10:32;;;;;;;3.88;1.55;;;;;;;20.42;49.99;97050.00;5073203;28;20110;-64
2022/09/07 05:13:00;;;;;;;2.47;1.33;;;;;;;20.92;49.36;97051.84;5073088;28;20127;-64
2022/09/07 05:15:29;;;;;;;5.85;1.80;;;;;;;21.48;47.61;97050.44;5072961;28;20080;-66
2022/09/07 05:17:57;;;;;;;6.57;1.77;;;;;;;22.00;46.91;97047.47;5072830;28;20044;-61
2022/09/07 05:20:25;;;;;;;7.07;2.03;;;;;;;22.41;46.43;97055.91;5072846;28;20044;-63
2022/09/07 05:22:58;;;;;;;4.03;1.70;;;;;;;22.75;45.24;97051.56;5072910;28;20064;-63
2022/09/07 05:25:27;;;;;;;3.25;1.42;;;;;;;23.10;44.71;97050.53;5072885;28;20044;-62
2022/09/07 05:27:55;;;;;;;2.65;1.50;;;;;;;23.62;44.39;97052.56;5072990;28;20072;-63
2022/09/07 05:30:22;;;;;;;3.25;1.40;;;;;;;24.22;43.42;97060.03;5072766;28;20084;-63
2022/09/07 05:32:50;;;;;;;3.80;1.48;;;;;;;24.78;42.36;97050.84;5072847;28;20045;-61
2022/09/07 05:35:17;;;;;;;6.22;1.77;;;;;;;25.31;41.63;97052.38;5072795;28;20041;-65
2022/09/07 05:37:49;;;;;;;5.47;1.90;;;;;;;25.77;40.96;97059.06;5072908;28;20045;-63
2022/09/07 05:40:17;;;;;;;2.35;1.55;;;;;;;26.10;40.39;97052.38;5075223;28;20051;-65
2022/09/07 05:42:44;;;;;;;4.40;1.15;;;;;;;26.56;39.38;97059.75;5076653;28;20499;-64
2022/09/07 05:45:12;;;;;;;1.50;1.40;;;;;;;26.72;37.30;97058.28;5076722;28;20432;-63
2022/09/07 05:47:39;;;;;;;1.67;1.58;;;;;;;27.00;37.81;97061.84;5076598;28;20049;-63
2022/09/07 05:50:08;;;;;;;2.67;1.70;;;;;;;27.34;36.91;97063.06;5076580;28;20051;-64
2022/09/07 05:52:35;;;;;;;2.95;2.03;;;;;;;27.67;36.42;97057.19;5076541;28;20045;-63
2022/09/07 05:55:06;;;;;;;4.13;1.80;;;;;;;27.81;35.01;97058.44;5076471;28;20102;-65
2022/09/07 05:57:33;;;;;;;4.57;1.70;;;;;;;28.04;34.94;97057.97;5076325;28;20140;-66
2022/09/07 06:00:00;;;;;;;5.07;1.60;;;;;;;28.19;35.46;97058.22;5076537;28;20521;-65
2022/09/07 06:02:27;;;;;;;5.63;1.75;;;;;;;28.33;34.53;97054.16;5076341;28;20050;-66
2022/09/07 06:04:54;;;;;;;7.13;2.97;;;;;;;28.51;34.79;97048.69;5076250;28;20040;-61
2022/09/07 06:07:21;;;;;;;2.70;2.20;;;;;;;28.32;34.71;97057.00;5076184;28;20094;-65
2022/09/07 06:09:48;;;;;;;3.95;2.03;;;;;;;28.21;35.22;97045.50;5076024;28;20044;-65
2022/09/07 06:12:17;;;;;;;3.55;1.60;;;;;;;27.91;33.81;97054.84;5076126;28;20102;-65
2022/09/07 06:14:44;;;;;;;1.92;1.08;;;;;;;27.67;34.78;97051.81;5076008;28;20067;-64
2022/09/07 06:17:11;;;;;;;2.38;1.60;;;;;;;27.66;34.56;97060.00;5075995;28;20055;-62
2022/09/07 06:19:38;;;;;;;2.17;1.60;;;;;;;27.72;35.65;97048.66;5076150;28;20045;-65
2022/09/07 06:22:05;;;;;;;3.08;1.70;;;;;;;27.90;34.96;97051.28;5075932;28;20558;-67
2022/09/07 06:24:32;;;;;;;5.05;1.70;;;;;;;27.86;34.70;97053.47;5075843;28;20099;-66
2022/09/07 06:26:59;;;;;;;2.05;1.52;;;;;;;27.93;35.10;97051.00;5075771;28;20131;-65
2022/09/07 06:29:28;;;;;;;4.55;1.88;;;;;;;27.85;34.38;97053.63;5075945;28;20458;-61
2022/09/07 06:31:55;;;;;;;3.72;2.08;;;;;;;27.95;35.37;97054.38;5075719;28;20387;-63
2022/09/07 06:34:24;;;;;;;5.63;2.33;;;;;;;27.97;34.46;97049.69;5075647;28;20045;-62
2022/09/07 06:36:51;;;;;;;2.42;2.00;;;;;;;28.00;35.88;97049.34;5075659;28;20051;-65
2022/09/07 06:39:18;;;;;;;2.53;2.22;;;;;;;27.96;35.93;97056.06;5075647;28;20076;-66
2022/09/07 06:41:45;;;;;;;3.83;2.15;;;;;;;28.03;35.73;97050.06;5075606;28;20052;-66
2022/09/07 06:44:12;;;;;;;5.18;2.58;;;;;;;27.91;35.78;97046.78;5075589;28;20565;-63
2022/09/07 06:46:41;;;;;;;7.68;2.13;;;;;;;27.61;34.24;97047.00;5075619;28;20098;-63
2022/09/07 06:49:08;;;;;;;1.90;1.40;;;;;;;27.64;35.16;97046.69;5075465;28;20052;-65
2022/09/07 06:51:35;;;;;;;1.98;1.20;;;;;;;27.60;35.11;97050.72;5075083;28;20460;-64
2022/09/07 06:54:04;;;;;;;2.63;1.40;;;;;;;27.82;36.07;97043.19;5075377;28;20056;-64
2022/09/07 06:56:31;;;;;;;3.28;1.48;;;;;;;27.90;35.77;97053.16;5075415;28;20048;-63
2022/09/07 06:58:58;;;;;;;4.03;1.40;;;;;;;27.99;33.55;97050.38;5075340;28;20094;-66
2022/09/07 07:01:26;;;;;;;3.85;2.00;;;;;;;27.95;32.47;97058.88;5075159;28;20097;-63
2022/09/07 07:03:55;;;;;;;3.30;1.65;;;;;;;27.93;30.39;97053.66;5075180;28;20051;-64
2022/09/07 07:06:22;;;;;;;2.58;1.48;;;;;;;27.86;33.29;97052.63;5075209;28;20080;-63
2022/09/07 07:08:53;;;;;;;3.90;1.67;;;;;;;28.03;33.29;97050.91;5075062;28;20048;-65
2022/09/07 07:11:21;;;;;;;2.58;1.50;;;;;;;27.99;34.94;97058.44;5074878;28;20380;-62
2022/09/07 07:13:48;;;;;;;7.25;1.77;;;;;;;28.29;35.13;97055.47;5074981;28;20041;-63
2022/09/07 07:16:18;;;;;;;2.25;1.65;;;;;;;28.41;31.95;97061.41;5075128;28;20053;-65
2022/09/07 07:18:47;;;;;;;2.22;1.90;;;;;;;28.54;32.91;97065.53;5074933;28;20080;-64
2022/09/07 07:21:16;;;;;;;3.25;1.77;;;;;;;28.53;30.44;97067.38;5075008;28;20044;-65
2022/09/07 07:23:44;;;;;;;2.22;1.73;;;;;;;28.58;32.18;97067.75;5074854;28;20044;-63
2022/09/07 07:26:13;;;;;;;4.70;1.90;;;;;;;28.76;30.52;97073.03;5074808;28;20044;-62
2022/09/07 07:28:45;;;;;;;1.73;1.40;;;;;;;28.85;29.93;97070.38;5074803;28;20040;-65
2022/09/07 07:31:12;;;;;;;3.72;2.15;;;;;;;28.80;30.93;97068.16;5074595;28;20131;-64
2022/09/07 07:33:40;;;;;;;3.15;1.50;;;;;;;28.71;31.27;97069.97;5074629;28;20445;-63
2022/09/07 07:36:09;;;;;;;3.45;1.63;;;;;;;28.73;31.79;97064.44;5074471;28;20056;-63
2022/09/07 07:38:38;;;;;;;2.60;1.60;;;;;;;28.87;30.87;97069.22;5074561;28;20072;-64
2022/09/07 07:41:05;;;;;;;4.70;1.95;;;;;;;28.87;31.51;97071.06;5074510;28;20052;-64
2022/09/07 07:43:33;;;;;;;2.65;2.00;;;;;;;28.74;30.83;97069.66;5074424;28;20486;-64
2022/09/07 07:46:00;;;;;;;3.70;1.80;;;;;;;27.86;30.04;97069.59;5074373;28;20056;-62
2022/09/07 07:48:28;;;;;;;3.63;1.77;;;;;;;27.66;31.98;97070.75;5074245;28;20051;-63
2022/09/07 07:50:59;;;;;;;3.30;2.55;;;;;;;27.69;31.79;97076.66;5074168;28;20456;-63
2022/09/07 07:53:27;;;;;;;3.28;2.10;;;;;;;27.84;31.25;97074.25;5074141;28;20398;-64
2022/09/07 07:55:58;;;;;;;5.13;2.50;;;;;;;27.91;31.57;97079.03;5074099;28;20098;-64
2022/09/07 07:58:26;;;;;;;;;;;;;;;27.97;29.37;97081.09;5074511;28;20048;-62
2022/09/07 08:00:53;;;;;;;3.17;1.77;;;;;;;27.69;31.32;97082.03;5073951;28;20348;-66
2022/09/07 08:03:21;;;;;;;8.00;2.00;;;;;;;27.57;31.54;97081.38;5073418;28;20127;-63
2022/09/07 08:05:48;;;;;;;3.97;2.08;;;;;;;27.73;29.67;97079.88;5073996;28;20580;-64
2022/09/07 08:08:15;;;;;;;2.38;2.05;;;;;;;27.83;30.53;97069.03;5074069;28;20048;-64
2022/09/07 08:10:44;;;;;;;4.18;2.20;;;;;;;28.05;28.82;97075.78;5074104;28;20047;-66
2022/09/07 08:13:13;;;;;;;2.78;2.13;;;;;;;28.18;28.53;97071.84;5073796;28;20045;-64
2022/09/07 08:15:43;;;;;;;3.03;2.00;;;;;;;28.24;27.08;97072.03;5073719;28;20044;-62
2022/09/07 08:18:11;;;;;;;2.97;1.67;;;;;;;28.10;28.05;97070.78;5073602;28;20105;-62
2022/09/07 08:20:39;;;;;;;3.58;2.50;;;;;;;27.98;26.24;97072.03;5073712;28;20052;-65
2022/09/07 08:23:07;;;;;;;4.03;1.98;;;;;;;27.93;27.16;97068.97;5073639;28;20457;-62
2022/09/07 08:25:35;;;;;;;2.33;1.77;;;;;;;28.15;27.43;97073.00;5073594;28;20051;-63
2022/09/07 08:28:03;;;;;;;2.40;1.90;;;;;;;28.00;27.30;97067.34;5073560;28;20090;-62
2022/09/07 08:30:31;;;;;;;5.70;2.08;;;;;;;27.91;27.55;97061.06;5073555;28;20094;-61
2022/09/07 08:32:58;;;;;;;4.97;2.38;;;;;;;27.96;26.91;97056.06;5073471;28;20514;-61
2022/09/07 08:35:26;;;;;;;3.03;2.15;;;;;;;27.67;26.50;97056.31;5073674;28;20060;-63
2022/09/07 08:37:53;;;;;;;4.80;2.30;;;;;;;27.42;25.43;97058.75;5073541;28;20045;-64
2022/09/07 08:40:20;;;;;;;2.45;2.17;;;;;;;27.45;30.07;97056.59;5073445;28;20136;-61
2022/09/07 08:43:08;;;;;;;4.00;2.28;;;;;;;27.43;27.57;97057.75;5073563;28;20044;-63
2022/09/07 08:45:43;;;;;;;3.50;2.10;;;;;;;27.43;29.34;97061.28;5073439;28;20074;-60
2022/09/07 08:48:14;;;;;;;2.72;2.00;;;;;;;27.49;27.36;97054.47;5073341;28;20063;-61
2022/09/07 08:50:53;;;;;;;4.45;2.42;;;;;;;27.50;26.50;97062.38;5073005;28;20083;-65
2022/09/07 08:53:23;;;;;;;4.43;2.13;;;;;;;27.53;28.39;97049.59;5073269;28;20072;-64
2022/09/07 08:55:51;;;;;;;;;;;;;;;27.71;28.65;97046.94;5073803;28;20044;-63
2022/09/07 08:58:23;;;;;;;2.53;2.30;;;;;;;27.61;26.76;97047.88;5073129;28;19921;-63
2022/09/07 09:00:54;;;;;;;4.60;2.25;;;;;;;27.66;27.41;97051.97;5073202;28;20048;-63
2022/09/07 09:03:26;;;;;;;4.22;2.00;;;;;;;27.74;28.05;97047.50;5073214;28;20371;-66
2022/09/07 09:06:03;;;;;;;7.88;2.17;;;;;;;27.69;28.23;97041.72;5073207;28;20051;-63
2022/09/07 09:08:47;;;;;;;3.08;2.15;;;;;;;27.37;28.66;97046.63;5073186;28;20383;-64
2022/09/07 09:11:24;;;;;;;3.13;2.05;;;;;;;27.15;25.92;97037.16;5073019;28;20059;-66
2022/09/07 09:13:58;;;;;;;4.40;2.00;;;;;;;26.12;26.58;97037.00;5076306;28;20489;-63
2022/09/07 09:16:36;;;;;;;5.63;2.40;;;;;;;25.42;28.04;97037.19;5079637;28;20048;-66
2022/09/07 09:19:14;;;;;;;3.92;2.13;;;;;;;25.28;32.20;97033.09;5079568;28;20053;-65
2022/09/07 09:21:42;;;;;;;4.13;1.85;;;;;;;25.41;28.27;97028.31;5079642;28;20045;-65
2022/09/07 09:24:16;;;;;;;5.63;2.30;;;;;;;25.32;32.17;97024.66;5079626;28;20048;-65
2022/09/07 09:26:48;;;;;;;5.07;2.47;;;;;;;25.55;30.39;97020.84;5079564;28;20044;-66
2022/09/07 09:29:19;;;;;;;3.70;2.03;;;;;;;25.65;27.70;97020.88;5079606;28;20092;-65
2022/09/07 09:31:48;;;;;;;5.15;2.08;;;;;;;25.78;29.17;97023.25;5079448;28;20402;-65
2022/09/07 09:34:17;;;;;;;5.93;2.33;;;;;;;25.73;30.50;97019.16;5079640;28;20086;-65
2022/09/07 09:36:47;;;;;;;4.13;2.03;;;;;;;25.51;29.68;97014.06;5079603;28;20044;-65
2022/09/07 09:39:29;;;;;;;4.90;2.27;;;;;;;25.05;30.46;97003.91;5079568;28;20439;-63
2022/09/07 09:42:00;;;;;;;3.13;2.17;;;;;;;25.13;33.27;97003.22;5079545;28;20320;-65
2022/09/07 09:44:33;;;;;;;2.63;2.00;;;;;;;25.44;33.07;97008.44;5079418;28;20041;-61
2022/09/07 09:47:03;;;;;;;3.38;2.00;;;;;;;25.51;31.06;97004.22;5079495;28;20049;-66
2022/09/07 09:49:36;;;;;;;4.27;2.33;;;;;;;25.48;33.27;96999.13;5079427;28;20062;-62
2022/09/07 09:52:04;;;;;;;4.57;2.20;;;;;;;25.65;34.33;97004.81;5079339;28;20383;-64
2022/09/07 09:54:36;;;;;;;5.30;2.00;;;;;;;25.60;30.89;96997.19;5079380;28;20040;-63
2022/09/07 09:57:16;;;;;;;3.03;2.15;;;;;;;25.67;34.23;97006.34;5079228;28;20053;-63
2022/09/07 10:00:00;;;;;;;5.13;2.38;;;;;;;25.96;33.15;97005.47;5079198;28;20052;-65
2022/09/07 10:02:31;;;;;;;2.60;2.08;;;;;;;26.05;32.96;97001.06;5079199;28;20076;-64
2022/09/07 10:05:33;;;;;;;2.72;1.85;;;;;;;26.28;33.06;96994.50;5079296;28;20494;-64
2022/09/07 10:08:01;;;;;;;2.20;1.70;;;;;;;26.21;30.32;96989.72;5079247;28;20048;-66
2022/09/07 10:10:30;;;;;;;3.92;2.00;;;;;;;26.09;33.08;96988.19;5079420;28;20432;-61
2022/09/07 10:12:58;;;;;;;5.28;2.10;;;;;;;26.25;33.68;96990.28;5079788;28;20075;-65
2022/09/07 10:15:30;;;;;;;3.88;1.92;;;;;;;26.38;32.46;96981.94;5079205;28;20525;-62
2022/09/07 10:17:59;;;;;;;2.40;1.80;;;;;;;26.32;33.07;96990.56;5079133;28;20067;-64
2022/09/07 10:20:33;;;;;;;7.00;1.90;;;;;;;26.41;33.63;96978.09;5079332;28;20102;-63
2022/09/07 10:23:01;;;;;;;2.58;2.28;;;;;;;26.35;31.48;96984.91;5079317;28;20132;-65
2022/09/07 10:25:30;;;;;;;2.17;1.88;;;;;;;26.41;32.50;96981.63;5076833;28;20078;-64
2022/09/07 10:28:18;;;;;;;2.30;2.00;;;;;;;25.91;31.10;96969.38;5076102;28;20051;-62
2022/09/07 10:31:02;;;;;;;3.85;2.33;;;;;;;25.85;34.40;96976.13;5075930;28;20046;-64
2022/09/07 10:33:44;;;;;;;3.13;2.20;;;;;;;25.88;34.39;96967.81;5076574;28;20045;-65
2022/09/07 10:36:20;;;;;;;6.28;2.40;;;;;;;25.87;33.66;96963.44;5075811;28;20049;-62
2022/09/07 10:38:59;;;;;;;3.72;1.90;;;;;;;25.83;31.49;96962.06;5075858;28;20049;-63
2022/09/07 10:41:41;;;;;;;3.67;2.17;;;;;;;25.88;32.51;96958.94;5075817;28;20056;-64
2022/09/07 10:44:18;;;;;;;3.08;2.10;;;;;;;25.74;34.79;96959.25;5075646;28;20113;-63
2022/09/07 10:46:53;;;;;;;4.75;2.30;;;;;;;25.80;32.65;96965.03;5075698;28;20041;-64
2022/09/07 10:49:27;;;;;;;5.88;2.10;;;;;;;25.73;33.32;96960.25;5075687;28;20076;-64
2022/09/07 10:52:06;;;;;;;2.75;2.05;;;;;;;25.63;34.50;96958.56;5075611;28;20101;-65
2022/09/07 10:54:45;;;;;;;3.08;1.65;;;;;;;25.65;33.45;96949.41;5075693;28;20044;-63
2022/09/07 10:57:31;;;;;;;3.20;2.28;;;;;;;25.77;33.63;96952.78;5075328;28;20513;-64
2022/09/07 11:00:08;;;;;;;3.17;2.15;;;;;;;25.21;32.48;96948.00;5075513;28;20044;-64
2022/09/07 11:02:57;;;;;;;4.47;1.98;;;;;;;25.17;34.06;96940.41;5075454;28;20045;-64
2022/09/07 11:05:34;;;;;;;6.10;2.08;;;;;;;24.90;32.43;96941.94;5075404;28;20044;-64
2022/09/07 11:08:26;;;;;;;3.25;2.03;;;;;;;24.67;33.06;96942.16;5075426;28;20062;-66
2022/09/07 11:11:02;;;;;;;4.82;1.88;;;;;;;24.70;33.66;96940.06;5075286;28;20430;-62
2022/09/07 11:13:35;;;;;;;3.38;2.30;;;;;;;24.70;33.47;96933.84;5075110;28;20048;-64
2022/09/07 11:16:07;;;;;;;2.35;1.65;;;;;;;24.65;33.20;96928.09;5075175;28;20048;-65
2022/09/07 11:18:40;;;;;;;3.10;2.25;;;;;;;24.87;36.03;96924.34;5074999;28;20110;-65
2022/09/07 11:21:15;;;;;;;2.88;2.10;;;;;;;25.04;34.18;96930.00;5075151;28;20052;-63
2022/09/07 11:23:47;;;;;;;6.45;2.30;;;;;;;25.17;34.70;96930.56;5074956;28;20049;-64
2022/09/07 11:26:20;;;;;;;2.85;1.50;;;;;;;25.35;34.84;96921.81;5074934;28;20107;-65
2022/09/07 11:28:52;;;;;;;3.03;1.70;;;;;;;25.49;34.98;96915.16;5074974;28;20162;-64
2022/09/07 11:31:24;;;;;;;3.22;2.03;;;;;;;25.68;34.88;96921.50;5074891;28;20072;-63
2022/09/07 11:33:57;;;;;;;5.68;2.58;;;;;;;25.80;33.69;96920.34;5074797;28;20146;-64
2022/09/07 11:36:31;;;;;;;2.30;2.00;;;;;;;25.88;32.41;96908.88;5074131;28;20041;-60
2022/09/07 11:39:05;;;;;;;3.30;1.70;;;;;;;25.93;31.77;96913.78;5074271;28;20057;-62
2022/09/07 11:41:36;;;;;;;7.45;1.95;;;;;;;25.80;30.98;96904.28;5074728;28;20395;-61
2022/09/07 11:44:12;;;;;;;3.30;2.03;;;;;;;25.64;32.08;96904.03;5074629;28;20187;-63
2022/09/07 11:46:44;;;;;;;3.67;2.10;;;;;;;25.73;33.77;96903.13;5074537;28;20044;-64
2022/09/07 11:49:17;;;;;;;7.60;2.28;;;;;;;25.93;32.87;96892.38;5074343;28;20056;-62
2022/09/07 11:51:51;;;;;;;4.57;1.85;;;;;;;26.06;32.56;96900.06;5074431;28;20044;-62